Flight Track Log - Related Links

Times and Time Zones

All times are in EDT time to prevent confusion due to time zone crossing. See the EMD21 flight status page for this flight to view local times or setup timezone preferences in your user account.

Time Position Orientation Groundspeed Altitude Reporting Facility
EDT Latitude Longitude Course Direction KTS MPH feet Rate Location/Type
Mon 01:51:58 PM 35.6006 -95.9736 199° South 150 173 2,800  Level Kansas City Center
Mon 01:52:26 PM 35.5906 -95.9769 195° South 135 155 3,300 1,079 Climbing Kansas City Center
Mon 01:53:27 PM 35.5544 -95.9922 199° South 135 155 4,400 1,200 Climbing Kansas City Center
Mon 01:54:31 PM 35.5069 -96.0133 200° South 147 169 5,800 1,258 Climbing Kansas City Center
Mon 01:55:31 PM 35.4647 -96.0331 201° Southwest 157 181 7,000 1,240 Climbing Kansas City Center
Mon 01:56:32 PM 35.4214 -96.0542 202° Southwest 165 190 8,300 1,217 Climbing Kansas City Center
Mon 01:57:00 PM 35.3728 -96.0665 199° South  Level FlightAware Approximate
Mon 01:57:49 PM 35.3594 -96.0797 199° South 166 191 9,800  Level Fort Worth Center
Mon 01:58:49 PM 35.3161 -96.1008 202° Southwest 172 198 10,900 950 Climbing Fort Worth Center
Mon 01:59:49 PM 35.2703 -96.1244 203° Southwest 172 198 11,700 843 Climbing Fort Worth Center
Mon 02:00:50 PM 35.2142 -96.1456 197° South 184 212 12,600 900 Climbing Fort Worth Center
Mon 02:01:49 PM 35.1664 -96.1667 200° South 191 220 13,500 857 Climbing Fort Worth Center
Mon 02:02:49 PM 35.1167 -96.1903 201° Southwest 191 220 14,300 800 Climbing Fort Worth Center
Mon 02:03:49 PM 35.0667 -96.2111 199° South 191 220 15,100 744 Climbing Fort Worth Center
Mon 02:04:50 PM 35.0150 -96.2347 201° Southwest 191 220 15,800 446 Climbing Fort Worth Center
Mon 02:05:50 PM 34.9608 -96.2583 200° South 191 220 16,000 101 Climbing Fort Worth Center
Mon 02:06:49 PM 34.9028 -96.2844 200° South 209 241 16,000  Level Fort Worth Center
Mon 02:07:50 PM 34.8383 -96.3106 198° South 228 262 16,000  Level Fort Worth Center
Mon 02:08:50 PM 34.7781 -96.3392 201° Southwest 233 268 16,000  Level Fort Worth Center
Mon 02:09:49 PM 34.7156 -96.3678 201° Southwest 233 268 16,000  Level Fort Worth Center
Mon 02:10:49 PM 34.6533 -96.3936 199° South 239 275 16,000  Level Fort Worth Center
Mon 02:11:50 PM 34.5908 -96.4197 199° South 239 275 16,000  Level Fort Worth Center
Mon 02:12:49 PM 34.5306 -96.4456 199° South 239 275 16,000  Level Fort Worth Center
Mon 02:13:49 PM 34.4703 -96.4739 201° Southwest 239 275 16,000  Level Fort Worth Center
Mon 02:14:49 PM 34.4078 -96.4972 197° South 239 275 16,000  Level Fort Worth Center
Mon 02:15:49 PM 34.3475 -96.5256 201° Southwest 239 275 16,000  Level Fort Worth Center
Mon 02:16:50 PM 34.2853 -96.5539 201° Southwest 233 268 16,000  Level Fort Worth Center
Mon 02:17:50 PM 34.2269 -96.5794 200° South 233 268 16,000  Level Fort Worth Center
Mon 02:18:49 PM 34.1644 -96.6028 197° South 233 268 16,000  Level Fort Worth Center
Mon 02:19:49 PM 34.1042 -96.6283 199° South 233 268 16,000  Level Fort Worth Center
Mon 02:20:50 PM 34.0458 -96.6514 198° South 227 261 16,000  Level Fort Worth Center
Mon 02:21:50 PM 33.9875 -96.6794 202° Southwest 227 261 16,000  Level Fort Worth Center
Mon 02:22:49 PM 33.9272 -96.7025 198° South 233 268 16,000  Level Fort Worth Center
Mon 02:23:50 PM 33.8669 -96.7306 201° Southwest 233 268 16,000  Level Fort Worth Center
Mon 02:24:49 PM 33.8128 -96.7536 199° South 233 268 16,000  Level Fort Worth Center
Mon 02:25:50 PM 33.7481 -96.7814 200° South 233 268 16,000  Level Fort Worth Center
Mon 02:26:50 PM 33.6939 -96.8044 200° South 233 268 16,000  Level Fort Worth Center
Mon 02:27:49 PM 33.6253 -96.8322 199° South 233 268 16,000  Level Fort Worth Center
Mon 02:28:50 PM 33.5731 -96.8550 200° South 233 268 16,000  Level Fort Worth Center
Mon 02:29:50 PM 33.5086 -96.8828 200° South 233 268 16,000  Level Fort Worth Center
Mon 02:30:49 PM 33.4461 -96.9106 200° South 226 260 16,000  Level Fort Worth Center
Mon 02:31:50 PM 33.3856 -96.9358 199° South 226 260 16,000  Level Fort Worth Center
Mon 02:32:50 PM 33.3356 -96.9511 194° South 226 260 16,000  Level Fort Worth Center
Mon 02:33:49 PM 33.2689 -96.9811 201° Southwest 226 260 16,000  Level Fort Worth Center
Mon 02:34:50 PM 33.2064 -97.0114 202° Southwest 226 260 16,000  Level Fort Worth Center
Mon 02:35:50 PM 33.1542 -97.0314 198° South 226 260 16,000  Level Fort Worth Center
Mon 02:36:49 PM 33.0897 -97.0589 200° South 226 260 16,000  Level Fort Worth Center
Mon 02:37:55 PM 33.0333 -97.0833 200° South 225 259 16,000  Level Dallas / Fort Worth TRACON
Mon 02:38:50 PM 32.9833 -97.1000 196° South 226 260 16,000  Level Dallas / Fort Worth TRACON
Mon 02:39:50 PM 32.9167 -97.1333 203° Southwest 226 260 16,000  Level Dallas / Fort Worth TRACON
Mon 02:40:13 PM 32.8914 -97.1364 186° South 225 259 16,000  Level Fort Worth Center
Mon 02:41:13 PM 32.8331 -97.1611 200° South 230 265 16,000  Level Fort Worth Center
Mon 02:42:13 PM 32.7683 -97.1886 200° South 230 265 16,000  Level Fort Worth Center
Mon 02:43:13 PM 32.7122 -97.2108 198° South 230 265 16,000  Level Fort Worth Center
Mon 02:44:13 PM 32.6433 -97.2408 200° South 230 265 16,000  Level Fort Worth Center
Mon 02:45:13 PM 32.5892 -97.2631 199° South 247 284 16,000  Level Fort Worth Center
Mon 02:46:13 PM 32.5286 -97.2853 197° South 238 274 16,000  Level Fort Worth Center
Mon 02:47:13 PM 32.4681 -97.3125 201° Southwest 233 268 16,000  Level Fort Worth Center
Mon 02:48:13 PM 32.4094 -97.3444 205° Southwest 228 262 16,000  Level Fort Worth Center
Mon 02:49:13 PM 32.3617 -97.3936 221° Southwest 235 270 16,000  Level Fort Worth Center
Mon 02:50:13 PM 32.3094 -97.4356 214° Southwest 235 270 16,000  Level Fort Worth Center
Mon 02:51:13 PM 32.2572 -97.4700 209° Southwest 240 276 16,000  Level Fort Worth Center
Mon 02:52:13 PM 32.1944 -97.5092 208° Southwest 233 268 16,000  Level Fort Worth Center
Mon 02:53:13 PM 32.1464 -97.5483 215° Southwest 239 275 16,000  Level Fort Worth Center
Mon 02:54:13 PM 32.0858 -97.5947 213° Southwest 233 268 16,000  Level Fort Worth Center
Mon 02:55:13 PM 32.0356 -97.6267 208° Southwest 233 268 16,000  Level Fort Worth Center
Mon 02:56:13 PM 31.9750 -97.6706 212° Southwest 233 268 16,000  Level Fort Worth Center
Mon 02:57:13 PM 31.9269 -97.7072 213° Southwest 233 268 16,000  Level Fort Worth Center
Mon 02:58:13 PM 31.8725 -97.7508 214° Southwest 233 268 16,000  Level Fort Worth Center
Mon 02:59:13 PM 31.8161 -97.7875 209° Southwest 233 268 16,000  Level Fort Worth Center
Mon 03:00:13 PM 31.7575 -97.8286 211° Southwest 233 268 16,000  Level Fort Worth Center
Mon 03:01:13 PM 31.7008 -97.8725 213° Southwest 233 268 16,000  Level Fort Worth Center
Mon 03:02:13 PM 31.6467 -97.9111 211° Southwest 233 268 16,000  Level Fort Worth Center
Mon 03:04:05 PM 31.5461 -97.9803 210° Southwest 235 270 16,000  Level Houston Center
Mon 03:05:07 PM 31.4906 -98.0206 212° Southwest 233 268 16,000  Level Houston Center
Mon 03:06:09 PM 31.4344 -98.0611 212° Southwest 234 269 16,000  Level Houston Center
Mon 03:07:11 PM 31.3778 -98.1019 212° Southwest 236 272 16,000  Level Houston Center
Mon 03:08:13 PM 31.3053 -98.1261 196° South 233 268 16,000  Level Houston Center
Mon 03:09:15 PM 31.2408 -98.1372 188° South 233 268 16,000  Level Houston Center
Mon 03:10:17 PM 31.1756 -98.1481 188° South 235 270 16,000  Level Houston Center
Mon 03:11:19 PM 31.1100 -98.1628 191° South 237 273 16,000  Level Houston Center
Mon 03:12:22 PM 31.0464 -98.1769 191° South 234 269 16,000  Level Houston Center
Mon 03:13:24 PM 30.9814 -98.1886 189° South 233 268 16,000  Level Houston Center
Mon 03:14:26 PM 30.9058 -98.2031 189° South 234 269 16,000  Level Houston Center
Mon 03:15:28 PM 30.8408 -98.2178 191° South 234 269 16,000  Level Houston Center
Mon 03:16:30 PM 30.7772 -98.2300 189° South 232 267 16,000  Level Houston Center
Mon 03:17:32 PM 30.7128 -98.2425 189° South 233 268 16,000 -339 Level Houston Center
Mon 03:18:34 PM 30.6456 -98.2561 190° South 240 276 15,300 -726 Descending Houston Center
Mon 03:19:36 PM 30.5767 -98.2686 189° South 246 283 14,500 -774 Descending Houston Center
Mon 03:20:38 PM 30.4964 -98.2844 190° South 249 287 13,700 -720 Descending Houston Center
Mon 03:21:41 PM 30.4319 -98.2992 191° South 238 274 13,000 -1,008 Descending Houston Center
Mon 03:22:43 PM 30.3611 -98.3125 189° South 250 288 11,600 -1,200 Descending Houston Center
Mon 03:23:36 PM 30.2953 -98.3244 189° South 263 303 10,700 -774 Descending Houston Center
Mon 03:24:47 PM 30.2128 -98.3403 189° South 242 278 10,000 -767 Descending Houston Center
Mon 03:25:49 PM 30.1478 -98.3542 190° South 239 275 9,000 -792 Descending Houston Center
Mon 03:26:33 PM 30.0975 -98.3656 191° South 242 278 8,600 -677 Descending Houston Center
Mon 03:26:51 PM 30.0772 -98.3703 191° South 240 276 8,300 -600 Descending Houston Center
Mon 03:27:53 PM 30.0142 -98.3808 188° South 229 264 7,800 -750 Descending Houston Center
Mon 03:28:35 PM 29.9703 -98.3978 198° South 240 276 7,000 -1,065 Descending Houston Center
Mon 03:28:55 PM 29.9506 -98.4047 197° South 239 275 6,700 -659 Descending Houston Center
Mon 03:29:57 PM 29.8856 -98.4264 196° South 227 261 6,100 -416 Descending Houston Center
Mon 03:30:36 PM 29.8503 -98.4414 200° South 215 247 6,000  Descending Houston Center
Mon 03:30:59 PM 29.8311 -98.4469 194° South 216 249 6,100  Climbing Houston Center
Mon 03:32:01 PM 29.7672 -98.4694 197° South 220 253 6,000  Descending Houston Center
Mon 03:33:03 PM 29.7106 -98.4869 195° South 208 239 6,100 -48 Climbing Houston Center
Mon 03:34:05 PM 29.6561 -98.5158 205° Southwest 203 234 5,900 -726 Descending Houston Center
Mon 03:35:07 PM 29.6031 -98.5492 209° Southwest 217 250 4,600 -1,403 Descending Houston Center
Mon 03:36:09 PM 29.5397 -98.5558 185° South 214 246 3,000 -1,065 Descending Houston Center
Mon 03:37:11 PM 29.5044 -98.5097 131° Southeast 189 217 2,400 -759 Descending Houston Center
Mon 03:37:36 PM 29.5025 -98.4953 99° East 114 131 1,900 -1,161 Descending Houston Center
Mon 03:38:13 PM 29.5156 -98.4772 50° Northeast 120 138 1,200 -660 Descending Houston Center
Mon 03:39:16 PM 29.5333 -98.4617 37° Northeast 99 114 800 -381 Descending Houston Center

Login

Don't have an account? Register now (free) for customized features, flight alerts, and more!